Strona główna
METAR-TAF:

METAR-TAF

Lotnisko :

Port lotniczy Wientian-Wattay

Wientian, Laos

Szerokość geograficzna: 17-57N, Długość geograficzna: 102-34E, wysokość: 171 m

Aktualna obserwacja pogody

Raport powstał 6 godziny i 26 minut temu, godzina 15:30 UTC
Cisza
Temperatura 26°C
Wilgotność 94%
Ciśnienie 1008 hPa
Widzialność: 4000 m
Rozproszone chmury na wysokości 4000 ft
zamglenie

METAR: VLVT 041530Z 00000KT 4000 BR SCT040 26/25 Q1008 NOSIG

czas: 04:56 (21:56 UTC)

Prognoza

Raport powstał 4 godziny i 56 minut temu, godzina 17:00 UTC
Prognoza ważna od 04 godzina 18 UTC do 05 godzina 18 UTC
Wiatr 4 kt od południowy zachód
Widzialność: 4000 m
Mało chmury na wysokości 2300 ft, Cumulonimbus.
Przerywane chmury na wysokości 4000 ft
Rozproszone chmury na wysokości 10000 ft
burza

TAF: VLVT 041700Z 0418/0518 22004KT 4000 TS FEW023CB BKN040 SCT100

Obserwacja i prognoza pogody dla ponad 4000 lotnisk (raport METAR i TAF).

Dostępne stacje oznaczono żółtymi i czerwonymi punktami na mapie.

Najedź kursorem aby zobaczyć nazwę stacji.

Kliknij aby zobaczyć obserwacje i prognozy pogody.

Aby zmienić mapę: kliknij na zielony przycisk z czarnym krzyżykiem, aby powiększyć; na zielony przycisk z myślnikiem, aby pomniejszyć; na zielone strzałki, aby przejść do map sąsiednich.


METAR-TAF: